Time;durP1;ratioP1;P1;durP2;ratioP2;P2;SDS_P1;SDS_P2;PMS_P1;PMS_P2;Temp;Humidity;BMP_temperature;BMP_pressure;BME280_temperature;BME280_humidity;BME280_pressure;Samples;Min_cycle;Max_cycle;Signal;HPM_P1;HPM_P2
2021/08/25 00:01:02;;;;;;;;;8.00;6.50;;;;;18.42;51.30;102116.16;4923883;28;46274;-77
2021/08/25 00:03:27;;;;;;;;;10.50;7.25;;;;;18.42;51.62;102117.00;4923434;28;45317;-76
2021/08/25 00:05:53;;;;;;;;;8.00;7.00;;;;;18.43;51.82;102116.06;4923755;28;45393;-79
2021/08/25 00:08:20;;;;;;;;;7.75;7.25;;;;;18.46;51.52;102111.53;4924121;28;45417;-78
2021/08/25 00:10:45;;;;;;;;;11.00;7.00;;;;;18.48;51.40;102112.34;4923424;28;46314;-79
2021/08/25 00:13:11;;;;;;;;;8.25;6.50;;;;;18.49;51.73;102119.41;4923614;28;45431;-79
2021/08/25 00:15:38;;;;;;;;;8.00;6.00;;;;;18.49;51.79;102114.06;4923937;28;45476;-77
2021/08/25 00:18:06;;;;;;;;;6.75;6.25;;;;;18.48;51.37;102118.53;4923469;28;45556;-77
2021/08/25 00:20:31;;;;;;;;;7.25;6.50;;;;;18.44;51.97;102101.84;4923463;28;45316;-76
2021/08/25 00:22:56;;;;;;;;;7.50;7.00;;;;;18.44;51.71;102107.16;4905438;28;45283;-77
2021/08/25 00:25:22;;;;;;;;;7.00;7.00;;;;;18.42;51.46;102109.00;4906758;28;45445;-76
2021/08/25 00:27:47;;;;;;;;;4.25;4.25;;;;;18.36;51.96;102098.66;4923157;28;45262;-76
2021/08/25 00:30:13;;;;;;;;;6.75;6.50;;;;;18.34;51.73;102097.84;4923378;28;45364;-79
2021/08/25 00:32:38;;;;;;;;;6.75;6.75;;;;;18.31;51.98;102106.84;4923400;28;45293;-83
2021/08/25 00:35:04;;;;;;;;;7.75;6.00;;;;;18.27;51.67;102093.75;4923672;28;45585;-85
2021/08/25 00:37:29;;;;;;;;;8.00;7.25;;;;;18.24;52.33;102086.75;4923547;28;45252;-84
2021/08/25 00:39:55;;;;;;;;;7.75;6.50;;;;;18.25;51.93;102095.63;4923106;28;45291;-77
2021/08/25 00:42:20;;;;;;;;;7.25;6.50;;;;;18.20;52.10;102087.81;4922327;28;45223;-80
2021/08/25 00:44:46;;;;;;;;;6.50;5.50;;;;;18.17;52.57;102086.13;4923365;28;45241;-80
2021/08/25 00:47:16;;;;;;;;;7.25;6.00;;;;;18.13;52.15;102087.19;4906175;28;45195;-79
2021/08/25 00:49:44;;;;;;;;;10.25;7.75;;;;;18.13;52.31;102081.00;4922806;28;46307;-76
2021/08/25 00:52:09;;;;;;;;;9.75;8.75;;;;;18.10;52.28;102076.66;4906029;28;45384;-77
2021/08/25 00:54:35;;;;;;;;;8.00;7.25;;;;;18.05;52.78;102071.56;4923227;28;45239;-77
2021/08/25 00:57:00;;;;;;;;;6.00;6.00;;;;;18.07;52.75;102076.81;4923007;28;45380;-77
2021/08/25 00:59:26;;;;;;;;;6.50;6.25;;;;;18.05;52.61;102078.69;4922443;28;46462;-77
2021/08/25 01:02:09;;;;;;;;;6.50;6.50;;;;;18.04;52.37;102083.13;4922396;28;45393;-76
2021/08/25 01:04:56;;;;;;;;;7.00;7.00;;;;;18.05;52.48;102078.69;4918063;28;45236;-88
2021/08/25 01:07:25;;;;;;;;;7.00;6.00;;;;;18.04;52.47;102076.94;4922874;28;47060;-82
2021/08/25 01:09:54;;;;;;;;;6.50;6.00;;;;;18.02;52.53;102076.16;4905493;28;47302;-77
2021/08/25 01:12:21;;;;;;;;;10.50;6.75;;;;;17.96;52.93;102074.63;4901772;29;45526;-77
2021/08/25 01:14:47;;;;;;;;;9.50;7.00;;;;;17.92;52.65;102073.03;4917687;28;45217;-78
2021/08/25 01:17:13;;;;;;;;;7.25;7.00;;;;;17.89;53.16;102074.03;4922914;28;45497;-77
2021/08/25 01:19:51;;;;;;;;;8.25;7.00;;;;;17.85;52.95;102077.75;4922438;28;46408;-77
2021/08/25 01:22:21;;;;;;;;;7.50;6.75;;;;;17.83;53.33;102069.81;4928129;28;45306;-76
2021/08/25 01:24:51;;;;;;;;;7.25;5.75;;;;;17.85;53.25;102067.13;4916137;28;45741;-79
2021/08/25 01:27:19;;;;;;;;;6.00;5.50;;;;;17.84;53.18;102071.56;4922529;28;45581;-79
2021/08/25 01:29:46;;;;;;;;;8.00;7.00;;;;;17.82;53.39;102064.59;4922347;28;45387;-80
2021/08/25 01:32:12;;;;;;;;;8.75;6.50;;;;;17.82;53.63;102070.78;4922190;28;45224;-80
2021/08/25 01:34:53;;;;;;;;;4.25;4.25;;;;;17.81;53.65;102073.47;4922941;28;45708;-85
2021/08/25 01:37:20;;;;;;;;;5.00;5.00;;;;;17.77;53.74;102073.63;4921561;28;45422;-85
2021/08/25 01:39:46;;;;;;;;;9.75;9.00;;;;;17.72;53.68;102067.63;4922649;28;45271;-82
2021/08/25 01:42:13;;;;;;;;;7.00;7.00;;;;;17.70;53.87;102064.19;4921545;28;45760;-83
2021/08/25 01:44:39;;;;;;;;;8.00;7.50;;;;;17.70;53.65;102068.63;4922986;28;45563;-81
2021/08/25 01:47:04;;;;;;;;;6.50;6.50;;;;;17.67;54.04;102069.63;4905156;28;45539;-82
2021/08/25 01:49:29;;;;;;;;;8.75;5.75;;;;;17.60;54.28;102074.34;4922556;28;46276;-82
2021/08/25 01:51:58;;;;;;;;;10.00;7.25;;;;;17.59;53.79;102064.63;4925031;28;45427;-78
2021/08/25 01:54:24;;;;;;;;;8.00;6.50;;;;;17.57;53.90;102061.16;4922558;28;45438;-78
2021/08/25 01:56:49;;;;;;;;;7.75;6.00;;;;;17.52;53.92;102053.38;4904786;28;47564;-77
2021/08/25 01:59:15;;;;;;;;;7.75;7.25;;;;;17.50;54.06;102057.91;4924812;28;45335;-80
2021/08/25 02:01:40;;;;;;;;;5.00;4.25;;;;;17.46;53.93;102048.31;4904604;28;45433;-79
2021/08/25 02:04:05;;;;;;;;;6.00;6.00;;;;;17.46;54.39;102053.63;4905368;28;45269;-80
2021/08/25 02:06:31;;;;;;;;;8.50;6.50;;;;;17.43;54.34;102051.97;4904957;28;46203;-76
2021/08/25 02:08:56;;;;;;;;;9.75;7.00;;;;;17.45;54.57;102054.56;4921144;28;46342;-77
2021/08/25 02:11:22;;;;;;;;;9.75;7.75;;;;;17.46;54.60;102052.78;4921108;28;45277;-77
2021/08/25 02:13:47;;;;;;;;;8.00;6.75;;;;;17.43;54.53;102049.31;4921673;28;45592;-77
2021/08/25 02:16:12;;;;;;;;;7.50;7.50;;;;;17.41;54.68;102052.94;4904865;28;45960;-77
2021/08/25 02:18:38;;;;;;;;;6.00;5.75;;;;;17.40;54.84;102052.09;4921592;28;45261;-76
2021/08/25 02:21:03;;;;;;;;;6.00;6.00;;;;;17.39;55.27;102046.84;4922157;28;45442;-77
2021/08/25 02:23:29;;;;;;;;;6.00;6.00;;;;;17.37;55.01;102040.72;4922036;28;45314;-78
2021/08/25 02:25:54;;;;;;;;;7.50;6.75;;;;;17.36;55.15;102044.31;4903923;28;45932;-77
2021/08/25 02:28:19;;;;;;;;;7.00;5.00;;;;;17.34;55.33;102040.84;4904361;28;48506;-78
2021/08/25 02:30:45;;;;;;;;;6.50;5.50;;;;;17.28;55.66;102037.53;4904779;28;46063;-77
2021/08/25 02:33:10;;;;;;;;;7.50;6.75;;;;;17.25;55.69;102040.31;4922169;28;45464;-79
2021/08/25 02:35:35;;;;;;;;;9.00;6.25;;;;;17.26;55.43;102047.34;4921035;28;45473;-80
2021/08/25 02:38:01;;;;;;;;;7.25;6.50;;;;;17.25;55.42;102047.41;4921032;28;46293;-79
2021/08/25 02:40:26;;;;;;;;;7.00;6.75;;;;;17.20;55.65;102040.50;4921394;28;45302;-88
2021/08/25 02:42:52;;;;;;;;;8.25;7.00;;;;;17.23;55.44;102043.97;4921782;28;45409;-86
2021/08/25 02:45:18;;;;;;;;;8.50;6.25;;;;;17.23;55.61;102049.28;4921509;28;45465;-76
2021/08/25 02:47:43;;;;;;;;;8.25;8.25;;;;;17.24;55.57;102041.22;4904294;28;48232;-76
2021/08/25 02:50:09;;;;;;;;;9.00;6.25;;;;;17.23;55.76;102043.97;4927121;28;45456;-76
2021/08/25 02:52:35;;;;;;;;;7.25;6.25;;;;;17.19;56.11;102041.41;4890111;29;45250;-76
2021/08/25 02:55:00;;;;;;;;;9.75;7.50;;;;;17.14;56.12;102039.81;4890132;28;46276;-76
2021/08/25 02:57:26;;;;;;;;;6.00;6.00;;;;;17.09;56.04;102037.34;4920626;28;45293;-78
2021/08/25 02:59:51;;;;;;;;;7.00;7.00;;;;;17.07;55.93;102039.22;4921610;28;45334;-78
2021/08/25 03:02:17;;;;;;;;;8.50;7.50;;;;;17.05;56.12;102036.63;4921723;28;45278;-78
2021/08/25 03:04:42;;;;;;;;;6.75;6.50;;;;;17.02;56.44;102031.44;4921300;28;45478;-78
2021/08/25 03:07:07;;;;;;;;;9.25;5.25;;;;;16.97;56.82;102030.75;4903860;28;46069;-78
2021/08/25 03:09:34;;;;;;;;;9.00;8.00;;;;;16.97;56.36;102036.94;4921482;28;45224;-76
2021/08/25 03:11:59;;;;;;;;;7.25;6.25;;;;;16.94;56.63;102029.06;4921295;28;45389;-79
2021/08/25 03:14:24;;;;;;;;;9.50;7.25;;;;;16.96;56.59;102029.88;4921223;28;45336;-78
2021/08/25 03:16:50;;;;;;;;;6.75;6.75;;;;;16.93;56.48;102029.16;4903735;28;45299;-78
2021/08/25 03:19:15;;;;;;;;;9.00;8.25;;;;;16.89;57.14;102024.91;4920682;28;45489;-77
2021/08/25 03:21:41;;;;;;;;;7.75;7.75;;;;;16.86;56.76;102024.09;4904278;28;45338;-76
2021/08/25 03:24:07;;;;;;;;;8.75;6.50;;;;;16.86;57.10;102032.06;4924019;28;46024;-76
2021/08/25 03:26:32;;;;;;;;;7.50;7.50;;;;;16.83;57.55;102031.31;4924118;28;46523;-76
2021/08/25 03:28:58;;;;;;;;;8.50;7.00;;;;;16.80;57.52;102026.97;4924082;28;45283;-76
2021/08/25 03:31:23;;;;;;;;;7.00;6.00;;;;;16.78;57.57;102026.16;4907419;28;45317;-75
2021/08/25 03:33:48;;;;;;;;;6.75;6.50;;;;;16.76;57.34;102026.25;4922869;28;45421;-76
2021/08/25 03:36:14;;;;;;;;;7.25;7.25;;;;;16.78;57.48;102031.47;4918540;28;46246;-76
2021/08/25 03:38:39;;;;;;;;;8.25;7.50;;;;;16.73;57.36;102023.69;4906941;28;45330;-76
2021/08/25 03:41:04;;;;;;;;;8.00;6.25;;;;;16.77;57.66;102021.78;4924173;28;45216;-76
2021/08/25 03:43:30;;;;;;;;;9.75;9.75;;;;;16.77;57.64;102021.78;4923944;28;45493;-76
2021/08/25 03:45:55;;;;;;;;;9.50;7.50;;;;;16.70;57.37;102017.63;4923530;28;45577;-78
2021/08/25 03:48:20;;;;;;;;;6.75;6.75;;;;;16.68;57.58;102027.44;4924127;28;45396;-79
2021/08/25 03:50:46;;;;;;;;;10.00;6.50;;;;;16.61;58.22;102027.69;4935542;28;45213;-79
2021/08/25 03:53:11;;;;;;;;;8.50;8.00;;;;;16.62;58.17;102029.41;4924038;28;45412;-78
2021/08/25 03:55:36;;;;;;;;;11.50;9.75;;;;;16.63;58.01;102024.97;4923307;28;46240;-82
2021/08/25 03:58:02;;;;;;;;;6.75;6.75;;;;;16.63;57.64;102031.16;4923935;28;45308;-75
2021/08/25 04:00:27;;;;;;;;;9.75;7.00;;;;;16.61;58.16;102022.38;4924030;28;45504;-76
2021/08/25 04:02:53;;;;;;;;;8.50;8.25;;;;;16.59;57.86;102021.59;4923861;28;46392;-77
2021/08/25 04:05:18;;;;;;;;;7.00;6.00;;;;;16.56;58.41;102024.34;4923093;28;46279;-75
2021/08/25 04:07:44;;;;;;;;;9.75;7.25;;;;;16.53;58.43;102024.47;4924160;28;45199;-76
2021/08/25 04:10:09;;;;;;;;;6.00;6.00;;;;;16.50;58.86;102016.59;4923941;28;45267;-76
2021/08/25 04:12:35;;;;;;;;;11.00;10.00;;;;;16.47;58.76;102019.38;4923375;28;45575;-77
2021/08/25 04:15:02;;;;;;;;;6.50;6.50;;;;;16.48;58.66;102024.63;4906436;28;46885;-77
2021/08/25 04:17:27;;;;;;;;;8.50;6.25;;;;;16.44;58.57;102014.19;4906120;28;45580;-77
2021/08/25 04:19:52;;;;;;;;;7.50;7.50;;;;;16.46;58.95;102015.00;4902345;29;45455;-76
2021/08/25 04:22:18;;;;;;;;;9.25;8.50;;;;;16.49;58.75;102020.19;4914881;28;45470;-76
2021/08/25 04:24:43;;;;;;;;;10.25;9.75;;;;;16.47;59.10;102017.56;4906450;28;46988;-76
2021/08/25 04:27:08;;;;;;;;;9.25;7.00;;;;;16.42;58.91;102016.91;4923001;28;45306;-76
2021/08/25 04:29:34;;;;;;;;;8.75;7.25;;;;;16.40;58.71;102018.72;4923524;28;45246;-76
2021/08/25 04:31:59;;;;;;;;;7.00;6.00;;;;;16.39;59.01;102017.91;4923317;28;45561;-78
2021/08/25 04:34:24;;;;;;;;;10.00;7.50;;;;;16.37;59.34;102021.53;4922912;28;45286;-77
2021/08/25 04:36:50;;;;;;;;;8.25;7.25;;;;;16.35;59.08;102021.56;4905072;28;45330;-76
2021/08/25 04:39:15;;;;;;;;;5.00;5.00;;;;;16.29;59.22;102020.03;4922814;28;45287;-77
2021/08/25 04:41:41;;;;;;;;;8.50;7.50;;;;;16.27;59.38;102013.03;4923072;28;45193;-77
2021/08/25 04:44:06;;;;;;;;;10.25;8.25;;;;;16.26;59.54;102021.91;4922895;28;45282;-76
2021/08/25 04:46:32;;;;;;;;;7.00;7.00;;;;;16.26;59.27;102024.56;4923376;28;45267;-77
2021/08/25 04:48:58;;;;;;;;;11.25;10.25;;;;;16.23;59.59;102024.66;4922924;28;45216;-77
2021/08/25 04:51:23;;;;;;;;;9.75;9.50;;;;;16.18;59.43;102022.19;4929461;28;45267;-77
2021/08/25 04:53:49;;;;;;;;;8.75;6.50;;;;;16.19;59.53;102027.44;4905876;28;47060;-77
2021/08/25 04:56:14;;;;;;;;;12.25;8.25;;;;;16.19;59.49;102023.94;4922704;28;46196;-77
2021/08/25 04:58:40;;;;;;;;;12.75;8.50;;;;;16.20;59.54;102029.16;4911819;28;45439;-77
2021/08/25 05:01:05;;;;;;;;;8.25;7.25;;;;;16.20;59.75;102029.16;4921992;28;45464;-77
2021/08/25 05:03:31;;;;;;;;;12.00;8.50;;;;;16.20;59.71;102023.84;4905651;28;47080;-76
2021/08/25 05:05:56;;;;;;;;;8.00;6.50;;;;;16.19;59.62;102019.50;4922951;28;45295;-77
2021/08/25 05:08:22;;;;;;;;;8.00;7.50;;;;;16.19;59.60;102013.31;4922859;28;45511;-78
2021/08/25 05:10:48;;;;;;;;;8.25;7.00;;;;;16.18;59.98;102020.41;4922468;28;45481;-77
2021/08/25 05:13:14;;;;;;;;;9.25;7.75;;;;;16.22;59.76;102020.31;4922606;28;45385;-78
2021/08/25 05:15:44;;;;;;;;;6.25;6.25;;;;;16.25;59.79;102023.69;4922862;28;45275;-78
2021/08/25 05:18:10;;;;;;;;;11.25;9.00;;;;;16.27;59.80;102018.34;4922540;28;45473;-79
2021/08/25 05:20:35;;;;;;;;;8.75;6.25;;;;;16.28;59.72;102014.75;4902279;28;46116;-79
2021/08/25 05:23:00;;;;;;;;;8.25;7.50;;;;;16.26;59.59;102017.47;4920829;28;45534;-79
2021/08/25 05:25:26;;;;;;;;;12.00;10.00;;;;;16.26;59.60;102027.22;4922223;28;45466;-78
2021/08/25 05:27:52;;;;;;;;;9.50;9.50;;;;;16.26;59.66;102021.91;4903283;28;45445;-78
2021/08/25 05:30:17;;;;;;;;;8.25;7.50;;;;;16.24;59.65;102024.63;4904765;28;47460;-79
2021/08/25 05:32:43;;;;;;;;;9.25;7.25;;;;;16.26;59.71;102024.56;4904472;28;47127;-78
2021/08/25 05:35:09;;;;;;;;;9.50;9.50;;;;;16.27;59.73;102027.16;4922228;28;45331;-79
2021/08/25 05:37:34;;;;;;;;;11.00;7.75;;;;;16.26;59.64;102028.09;4922457;28;45424;-78
2021/08/25 05:40:00;;;;;;;;;3.50;3.00;;;;;16.27;59.77;102023.66;4921848;28;45571;-78
2021/08/25 05:42:25;;;;;;;;;11.25;8.25;;;;;16.19;59.83;102032.75;4904228;28;47215;-78
2021/08/25 05:44:51;;;;;;;;;10.75;9.00;;;;;16.14;60.00;102029.41;4921742;28;45256;-78
2021/08/25 05:47:16;;;;;;;;;8.00;7.25;;;;;16.12;60.39;102030.38;4905152;28;45180;-78
2021/08/25 05:49:41;;;;;;;;;8.50;7.00;;;;;16.09;60.15;102031.34;4921250;28;45860;-78
2021/08/25 05:52:07;;;;;;;;;11.00;10.00;;;;;16.07;60.31;102027.88;4921817;28;46919;-76
2021/08/25 05:54:32;;;;;;;;;6.50;6.50;;;;;16.14;60.54;102033.84;4922576;28;45172;-76
2021/08/25 05:56:57;;;;;;;;;13.25;9.50;;;;;16.16;60.41;102029.34;4904455;28;45233;-76
2021/08/25 05:59:23;;;;;;;;;9.75;7.00;;;;;16.16;60.58;102037.28;4903932;28;45923;-80
2021/08/25 06:01:48;;;;;;;;;7.25;7.25;;;;;16.17;60.49;102037.22;4920097;28;46171;-79
2021/08/25 06:04:13;;;;;;;;;10.50;10.00;;;;;16.20;60.27;102039.78;4905066;28;45493;-79
2021/08/25 06:06:39;;;;;;;;;12.00;10.50;;;;;16.17;60.36;102039.88;4904224;28;45329;-79
2021/08/25 06:09:04;;;;;;;;;9.25;8.25;;;;;16.15;60.46;102039.06;4914780;28;45459;-79
2021/08/25 06:11:30;;;;;;;;;12.25;10.25;;;;;16.17;60.49;102036.38;4921519;28;46187;-79
2021/08/25 06:13:56;;;;;;;;;12.50;9.75;;;;;16.19;60.23;102032.75;4921969;28;45391;-80
2021/08/25 06:16:21;;;;;;;;;9.50;9.00;;;;;16.17;60.14;102041.69;4921987;28;45347;-79
2021/08/25 06:18:46;;;;;;;;;11.25;9.75;;;;;16.17;60.32;102047.00;4921182;28;45317;-80
2021/08/25 06:21:18;;;;;;;;;8.50;8.50;;;;;16.16;60.41;102045.25;4921924;28;45374;-79
2021/08/25 06:23:44;;;;;;;;;11.50;10.25;;;;;16.14;60.69;102047.09;4917689;28;45359;-79
2021/08/25 06:26:10;;;;;;;;;13.25;10.50;;;;;16.15;60.56;102051.50;4921031;28;45339;-79
2021/08/25 06:28:35;;;;;;;;;12.00;10.00;;;;;16.14;60.54;102050.63;4921908;28;45493;-79
2021/08/25 06:31:01;;;;;;;;;12.25;10.50;;;;;16.15;60.79;102040.88;4903848;28;47088;-79
2021/08/25 06:33:26;;;;;;;;;14.75;9.00;;;;;16.16;60.59;102040.81;4921076;28;45322;-79
2021/08/25 06:35:51;;;;;;;;;12.00;10.00;;;;;16.19;61.14;102042.50;4904042;28;45353;-79
2021/08/25 06:38:17;;;;;;;;;10.50;9.25;;;;;16.25;60.66;102036.94;4921083;28;45471;-80
2021/08/25 06:40:42;;;;;;;;;7.75;7.75;;;;;16.32;60.38;102040.28;4903833;28;47017;-79
2021/08/25 06:43:07;;;;;;;;;10.25;8.50;;;;;16.34;60.39;102041.06;4912655;28;45737;-79
2021/08/25 06:45:33;;;;;;;;;11.50;10.00;;;;;16.38;60.44;102041.81;4918788;28;45295;-79
2021/08/25 06:47:58;;;;;;;;;8.00;8.00;;;;;16.39;60.26;102041.78;4921748;28;45500;-79
2021/08/25 06:50:23;;;;;;;;;8.00;7.25;;;;;16.45;59.91;102042.44;4926865;28;46249;-79
2021/08/25 06:52:49;;;;;;;;;13.25;10.25;;;;;16.50;60.21;102044.00;4921403;28;45315;-79
2021/08/25 06:55:14;;;;;;;;;13.50;10.00;;;;;16.53;59.77;102046.56;4903032;28;45332;-79
2021/08/25 06:57:39;;;;;;;;;8.75;8.50;;;;;16.57;59.89;102043.78;4906810;28;46965;-80
2021/08/25 07:00:07;;;;;;;;;11.50;9.00;;;;;16.63;60.40;102048.84;4907696;28;46562;-79
2021/08/25 07:02:32;;;;;;;;;8.25;8.25;;;;;16.70;59.84;102044.19;4924970;28;45299;-79
2021/08/25 07:04:57;;;;;;;;;9.75;9.25;;;;;16.80;59.60;102057.97;4924756;28;45506;-79
2021/08/25 07:07:23;;;;;;;;;11.25;8.50;;;;;16.85;59.45;102045.38;4925006;28;45405;-79
2021/08/25 07:09:48;;;;;;;;;11.25;9.25;;;;;16.89;59.69;102056.75;4924470;28;46618;-79
2021/08/25 07:12:13;;;;;;;;;9.00;6.00;;;;;16.94;59.63;102046.81;4924438;28;45194;-80
2021/08/25 07:14:39;;;;;;;;;9.00;9.00;;;;;16.97;59.09;102049.34;4924784;28;45261;-80
2021/08/25 07:17:04;;;;;;;;;11.00;9.75;;;;;17.02;59.14;102047.38;4924729;28;45355;-79
2021/08/25 07:19:30;;;;;;;;;8.75;6.50;;;;;17.03;59.37;102034.97;4904909;28;48644;-79
2021/08/25 07:21:56;;;;;;;;;9.25;7.50;;;;;17.08;59.57;102040.97;4925032;28;45388;-79
2021/08/25 07:24:22;;;;;;;;;6.25;6.00;;;;;17.10;58.91;102036.44;4924495;28;45371;-79
2021/08/25 07:26:47;;;;;;;;;7.75;7.00;;;;;17.15;59.42;102030.94;4924276;28;45325;-79
2021/08/25 07:29:12;;;;;;;;;10.75;9.00;;;;;17.20;58.81;102031.66;4923780;28;45488;-79
2021/08/25 07:31:38;;;;;;;;;11.25;7.00;;;;;17.24;59.00;102024.41;4924297;28;45387;-79
2021/08/25 07:34:04;;;;;;;;;12.50;11.00;;;;;17.29;58.84;102031.28;4924324;28;45270;-80
2021/08/25 07:36:30;;;;;;;;;10.50;6.75;;;;;17.30;58.59;102035.69;4924689;28;45475;-79
2021/08/25 07:38:55;;;;;;;;;8.00;7.50;;;;;17.33;58.82;102034.69;4923972;28;46218;-79
2021/08/25 07:41:20;;;;;;;;;10.25;9.50;;;;;17.38;58.63;102030.06;4906550;28;45406;-79
2021/08/25 07:43:46;;;;;;;;;13.00;9.25;;;;;17.44;58.29;102028.91;4906187;28;45241;-79
2021/08/25 07:46:12;;;;;;;;;8.75;8.25;;;;;17.50;58.52;102028.66;4905742;28;45223;-79
2021/08/25 07:48:38;;;;;;;;;8.00;8.00;;;;;17.55;58.27;102020.50;4906546;28;47144;-79
2021/08/25 07:51:08;;;;;;;;;9.50;9.00;;;;;17.60;58.30;102033.59;4906169;28;45345;-84
2021/08/25 07:53:35;;;;;;;;;7.25;6.75;;;;;17.65;58.27;102024.50;4924233;28;45410;-84
2021/08/25 07:56:00;;;;;;;;;13.25;9.00;;;;;17.70;58.27;102016.31;4922294;28;45840;-84
2021/08/25 07:58:26;;;;;;;;;11.50;10.00;;;;;17.76;57.87;102021.38;4922840;28;45712;-90
2021/08/25 08:00:51;;;;;;;;;8.25;8.00;;;;;17.83;57.74;102021.13;4905815;28;46002;-83
2021/08/25 08:03:16;;;;;;;;;10.25;9.50;;;;;17.89;57.33;102015.50;4915782;28;45391;-84
2021/08/25 08:05:43;;;;;;;;;11.00;9.50;;;;;17.94;58.14;102008.19;4917872;28;46098;-84
2021/08/25 08:08:09;;;;;;;;;9.00;8.00;;;;;17.99;57.39;102011.53;4904720;28;46174;-84
2021/08/25 08:10:34;;;;;;;;;9.25;9.25;;;;;18.07;57.50;102007.66;4922018;28;45318;-84
2021/08/25 08:12:59;;;;;;;;;8.75;6.75;;;;;18.11;57.43;102011.91;4922586;28;45382;-84
2021/08/25 08:15:28;;;;;;;;;10.00;9.00;;;;;18.18;57.50;102007.16;4905329;28;47441;-84
2021/08/25 08:17:54;;;;;;;;;9.25;6.50;;;;;18.26;57.06;102014.81;4922250;28;46265;-84
2021/08/25 08:20:19;;;;;;;;;8.75;8.75;;;;;18.31;56.80;102010.16;4923691;28;45580;-83
2021/08/25 08:22:45;;;;;;;;;9.00;7.75;;;;;18.38;57.09;102013.41;4922340;28;45902;-83
2021/08/25 08:25:10;;;;;;;;;9.25;8.50;;;;;18.44;56.86;102007.81;4921794;28;45243;-84
2021/08/25 08:27:36;;;;;;;;;7.25;7.25;;;;;18.48;56.67;102005.84;4905215;28;47265;-85
2021/08/25 08:30:02;;;;;;;;;9.00;8.25;;;;;18.52;56.35;101999.47;4922266;28;45472;-84
2021/08/25 08:32:27;;;;;;;;;9.50;7.25;;;;;18.59;56.36;102000.03;4905358;28;45348;-84
2021/08/25 08:34:53;;;;;;;;;7.75;7.75;;;;;18.63;55.83;101993.63;4923673;28;45168;-86
2021/08/25 08:37:18;;;;;;;;;9.00;8.25;;;;;18.70;56.56;102000.38;4922760;28;46264;-85
2021/08/25 08:39:43;;;;;;;;;10.75;8.00;;;;;18.76;56.32;101999.25;4922098;28;45677;-85
2021/08/25 08:42:29;;;;;;;;;7.75;7.75;;;;;18.82;55.70;102003.38;4904560;28;45451;-85
2021/08/25 08:44:56;;;;;;;;;10.25;9.75;;;;;18.85;55.56;101997.91;4912534;28;45335;-84
2021/08/25 08:47:26;;;;;;;;;9.75;9.75;;;;;18.90;55.70;102006.56;4905004;28;47206;-85
2021/08/25 08:49:54;;;;;;;;;9.50;7.25;;;;;18.95;55.55;101993.00;4927396;28;45495;-85
2021/08/25 08:52:20;;;;;;;;;11.75;9.00;;;;;19.01;55.89;101998.06;4922094;28;45226;-85
2021/08/25 08:54:46;;;;;;;;;10.25;8.25;;;;;19.07;55.91;101989.75;4921904;28;45404;-84
2021/08/25 08:57:12;;;;;;;;;10.25;8.75;;;;;19.16;55.61;101993.75;4899746;28;48297;-85
2021/08/25 08:59:37;;;;;;;;;7.50;7.25;;;;;19.25;55.09;102000.47;4928096;28;45721;-86
2021/08/25 09:02:03;;;;;;;;;11.00;8.25;;;;;19.32;55.06;101995.69;4921410;28;45242;-85
2021/08/25 09:04:35;;;;;;;;;8.25;8.00;;;;;19.39;54.72;101993.56;4900859;28;46904;-85
2021/08/25 09:07:02;;;;;;;;;11.50;9.00;;;;;19.44;54.62;101995.06;4933357;28;45301;-85
2021/08/25 09:09:29;;;;;;;;;13.75;11.25;;;;;19.50;54.55;101996.56;4925792;28;45425;-86
2021/08/25 09:11:55;;;;;;;;;6.00;6.00;;;;;19.55;54.93;101991.84;4923148;28;45364;-86
2021/08/25 09:14:27;;;;;;;;;9.50;9.00;;;;;19.61;54.22;101984.47;4921859;28;45591;-85
2021/08/25 09:17:02;;;;;;;;;10.25;7.50;;;;;19.70;53.82;101994.66;4917556;28;45416;-86
2021/08/25 09:19:35;;;;;;;;;10.50;10.00;;;;;19.75;53.00;101989.09;4903671;28;45880;-85
2021/08/25 09:22:00;;;;;;;;;9.25;9.00;;;;;19.78;53.12;101987.09;4922899;28;45317;-85
2021/08/25 09:24:46;;;;;;;;;10.00;9.75;;;;;19.89;53.53;101993.69;4921415;28;45494;-85
2021/08/25 09:27:16;;;;;;;;;8.50;8.50;;;;;19.94;53.03;101978.31;4918930;28;46416;-85
2021/08/25 09:29:54;;;;;;;;;9.75;9.75;;;;;20.00;53.15;101980.63;4921839;28;45545;-85
2021/08/25 09:32:22;;;;;;;;;15.00;11.25;;;;;20.08;52.63;101984.69;4924913;28;45542;-85
2021/08/25 09:35:02;;;;;;;;;11.25;9.25;;;;;20.15;52.75;101980.78;4917364;28;46492;-85
2021/08/25 09:37:29;;;;;;;;;13.25;8.25;;;;;20.22;52.28;101986.66;4919549;28;46296;-86
2021/08/25 09:39:58;;;;;;;;;7.50;6.75;;;;;20.30;51.22;101986.22;4905873;28;45402;-86
2021/08/25 09:42:24;;;;;;;;;11.50;9.25;;;;;20.37;51.42;101976.97;4917271;28;45499;-86
2021/08/25 09:45:05;;;;;;;;;9.00;8.25;;;;;20.41;51.43;101975.84;4913429;28;45466;-85
2021/08/25 09:47:51;;;;;;;;;11.75;7.75;;;;;20.49;51.63;101969.19;4932412;28;46128;-85
2021/08/25 09:50:27;;;;;;;;;8.25;8.00;;;;;20.56;50.61;101962.56;4920923;28;45434;-85
2021/08/25 09:52:53;;;;;;;;;11.75;8.00;;;;;20.58;50.79;101958.00;4921967;28;45291;-85
2021/08/25 09:55:33;;;;;;;;;10.00;7.25;;;;;20.65;50.74;101951.34;4923208;28;45480;-85
2021/08/25 09:58:00;;;;;;;;;8.50;6.75;;;;;20.71;50.26;101958.16;4905239;28;46365;-87
2021/08/25 10:00:26;;;;;;;;;10.00;8.00;;;;;20.77;49.89;101949.78;4923821;28;45641;-86
2021/08/25 10:02:52;;;;;;;;;8.25;8.00;;;;;20.83;50.12;101947.72;4921021;28;45391;-85
2021/08/25 10:05:28;;;;;;;;;9.75;9.75;;;;;20.84;48.64;101944.94;4891272;28;46226;-85
2021/08/25 10:07:54;;;;;;;;;7.25;6.00;;;;;20.89;50.27;101945.53;4891921;28;46979;-85
2021/08/25 10:10:20;;;;;;;;;9.00;8.25;;;;;20.96;50.53;101946.06;4921186;28;45750;-85
2021/08/25 10:12:49;;;;;;;;;9.50;8.50;;;;;21.02;49.44;101948.41;4920719;28;45382;-85
2021/08/25 10:15:45;;;;;;;;;10.75;9.75;;;;;21.09;49.39;101940.88;4904707;28;46080;-86
2021/08/25 10:18:20;;;;;;;;;7.00;7.00;;;;;21.13;48.62;101942.44;4910025;28;46110;-86
2021/08/25 10:20:45;;;;;;;;;8.75;8.25;;;;;21.16;48.59;101943.19;4921290;28;45375;-86
2021/08/25 10:23:10;;;;;;;;;7.00;7.00;;;;;21.20;48.64;101932.22;4920946;28;45335;-86
2021/08/25 10:26:06;;;;;;;;;9.25;8.00;;;;;21.27;48.11;101938.06;4919707;28;45497;-86
2021/08/25 10:29:01;;;;;;;;;9.50;8.50;;;;;21.31;48.19;101928.91;4921334;28;47405;-86
2021/08/25 10:31:49;;;;;;;;;9.50;7.75;;;;;21.33;46.89;101927.03;4922207;28;45355;-86
2021/08/25 10:34:17;;;;;;;;;8.75;7.75;;;;;21.38;47.36;101925.88;4906869;28;45425;-86
2021/08/25 10:36:43;;;;;;;;;9.00;8.00;;;;;21.41;47.41;101926.53;4923212;28;45243;-86
2021/08/25 10:39:35;;;;;;;;;10.50;9.50;;;;;21.45;47.39;101933.44;4923491;28;45504;-87
2021/08/25 10:42:00;;;;;;;;;12.00;10.00;;;;;21.46;46.83;101924.44;4923386;28;45360;-85
2021/08/25 10:44:38;;;;;;;;;9.75;7.75;;;;;21.52;46.09;101925.03;4907912;28;45257;-85
2021/08/25 10:47:05;;;;;;;;;9.00;8.50;;;;;21.52;46.76;101920.53;4906464;28;45422;-86
2021/08/25 10:49:32;;;;;;;;;8.00;7.50;;;;;21.57;47.28;101929.16;4924689;28;46544;-86
2021/08/25 10:52:06;;;;;;;;;7.00;7.00;;;;;21.64;46.44;101920.72;4930552;28;45420;-86
2021/08/25 10:54:33;;;;;;;;;8.50;7.50;;;;;21.67;46.12;101917.88;4907091;28;45592;-85
2021/08/25 10:57:13;;;;;;;;;9.75;8.75;;;;;21.72;45.75;101915.78;4923450;28;45498;-86
2021/08/25 10:59:39;;;;;;;;;7.25;6.75;;;;;21.75;46.50;101917.41;4906618;28;45880;-86
2021/08/25 11:02:04;;;;;;;;;7.25;7.25;;;;;21.78;46.97;101909.19;4923970;28;45352;-86
2021/08/25 11:04:30;;;;;;;;;7.50;7.50;;;;;21.77;46.83;101900.28;4924027;28;45468;-85
2021/08/25 11:07:10;;;;;;;;;7.00;7.00;;;;;21.80;46.17;101907.28;4923257;28;45413;-86
2021/08/25 11:09:38;;;;;;;;;9.50;7.25;;;;;21.83;46.14;101901.69;4924173;28;45400;-85
2021/08/25 11:12:11;;;;;;;;;9.25;7.25;;;;;21.87;45.74;101902.41;4922770;28;45179;-85
2021/08/25 11:14:46;;;;;;;;;9.25;8.25;;;;;21.89;45.30;101896.00;4921667;28;45450;-85
2021/08/25 11:17:14;;;;;;;;;10.00;10.00;;;;;21.92;45.34;101900.31;4923396;28;45512;-85
2021/08/25 11:19:48;;;;;;;;;6.75;6.75;;;;;21.96;45.48;101891.13;4936768;28;46437;-84
2021/08/25 11:22:18;;;;;;;;;9.00;8.50;;;;;22.00;45.71;101886.44;4923919;28;45560;-85